sensor_id;sensor_type;location;lat;lon;timestamp;P1;durP1;ratioP1;P2;durP2;ratioP2
65234;SDS011;51820;48.374;10.930;2023-06-10T00:00:26;10.05;;;6.53;;
65234;SDS011;51820;48.374;10.930;2023-06-10T00:02:56;12.10;;;6.32;;
65234;SDS011;51820;48.374;10.930;2023-06-10T00:05:27;11.63;;;6.27;;
65234;SDS011;51820;48.374;10.930;2023-06-10T00:07:56;9.43;;;5.97;;
65234;SDS011;51820;48.374;10.930;2023-06-10T00:10:25;9.07;;;5.93;;
65234;SDS011;51820;48.374;10.930;2023-06-10T00:12:54;10.45;;;6.47;;
65234;SDS011;51820;48.374;10.930;2023-06-10T00:15:22;11.05;;;6.47;;
65234;SDS011;51820;48.374;10.930;2023-06-10T00:17:51;8.93;;;5.93;;
65234;SDS011;51820;48.374;10.930;2023-06-10T00:20:19;12.07;;;6.32;;
65234;SDS011;51820;48.374;10.930;2023-06-10T00:22:49;11.65;;;6.55;;
65234;SDS011;51820;48.374;10.930;2023-06-10T00:25:18;8.77;;;5.90;;
65234;SDS011;51820;48.374;10.930;2023-06-10T00:27:47;9.48;;;5.97;;
65234;SDS011;51820;48.374;10.930;2023-06-10T00:30:15;10.53;;;6.30;;
65234;SDS011;51820;48.374;10.930;2023-06-10T00:32:43;9.73;;;6.30;;
65234;SDS011;51820;48.374;10.930;2023-06-10T00:35:12;10.02;;;5.57;;
65234;SDS011;51820;48.374;10.930;2023-06-10T00:37:40;11.98;;;5.88;;
65234;SDS011;51820;48.374;10.930;2023-06-10T00:40:11;9.77;;;6.03;;
65234;SDS011;51820;48.374;10.930;2023-06-10T00:42:39;12.50;;;5.90;;
65234;SDS011;51820;48.374;10.930;2023-06-10T00:45:08;9.77;;;6.40;;
65234;SDS011;51820;48.374;10.930;2023-06-10T00:47:37;10.38;;;6.47;;
65234;SDS011;51820;48.374;10.930;2023-06-10T00:50:06;13.18;;;6.13;;
65234;SDS011;51820;48.374;10.930;2023-06-10T00:52:35;9.73;;;6.15;;
65234;SDS011;51820;48.374;10.930;2023-06-10T00:55:04;9.20;;;5.83;;
65234;SDS011;51820;48.374;10.930;2023-06-10T00:57:36;9.82;;;5.80;;
65234;SDS011;51820;48.374;10.930;2023-06-10T01:00:05;10.23;;;5.70;;
65234;SDS011;51820;48.374;10.930;2023-06-10T01:02:36;10.10;;;6.28;;
65234;SDS011;51820;48.374;10.930;2023-06-10T01:05:05;12.60;;;6.70;;
65234;SDS011;51820;48.374;10.930;2023-06-10T01:07:36;10.87;;;5.93;;
65234;SDS011;51820;48.374;10.930;2023-06-10T01:10:09;10.55;;;6.10;;
65234;SDS011;51820;48.374;10.930;2023-06-10T01:12:45;10.50;;;5.93;;
65234;SDS011;51820;48.374;10.930;2023-06-10T01:15:19;9.52;;;6.03;;
65234;SDS011;51820;48.374;10.930;2023-06-10T01:17:56;13.15;;;6.05;;
65234;SDS011;51820;48.374;10.930;2023-06-10T01:20:25;9.40;;;6.07;;
65234;SDS011;51820;48.374;10.930;2023-06-10T01:22:57;11.82;;;6.68;;
65234;SDS011;51820;48.374;10.930;2023-06-10T01:25:28;9.23;;;5.93;;
65234;SDS011;51820;48.374;10.930;2023-06-10T01:28:01;9.73;;;5.95;;
65234;SDS011;51820;48.374;10.930;2023-06-10T01:30:32;9.98;;;6.35;;
65234;SDS011;51820;48.374;10.930;2023-06-10T01:33:11;10.33;;;5.77;;
65234;SDS011;51820;48.374;10.930;2023-06-10T01:35:42;12.20;;;6.45;;
65234;SDS011;51820;48.374;10.930;2023-06-10T01:38:13;9.75;;;6.47;;
65234;SDS011;51820;48.374;10.930;2023-06-10T01:40:43;9.60;;;5.82;;
65234;SDS011;51820;48.374;10.930;2023-06-10T01:43:11;11.85;;;6.63;;
65234;SDS011;51820;48.374;10.930;2023-06-10T01:45:40;10.43;;;6.27;;
65234;SDS011;51820;48.374;10.930;2023-06-10T01:48:09;11.38;;;6.53;;
65234;SDS011;51820;48.374;10.930;2023-06-10T01:50:37;9.65;;;6.40;;
65234;SDS011;51820;48.374;10.930;2023-06-10T01:53:08;13.30;;;6.40;;
65234;SDS011;51820;48.374;10.930;2023-06-10T01:55:38;11.38;;;6.00;;
65234;SDS011;51820;48.374;10.930;2023-06-10T01:58:06;10.20;;;6.63;;
65234;SDS011;51820;48.374;10.930;2023-06-10T02:00:37;9.38;;;6.15;;
65234;SDS011;51820;48.374;10.930;2023-06-10T02:03:07;10.70;;;6.40;;
65234;SDS011;51820;48.374;10.930;2023-06-10T02:05:36;12.85;;;5.90;;
65234;SDS011;51820;48.374;10.930;2023-06-10T02:08:04;9.55;;;5.85;;
65234;SDS011;51820;48.374;10.930;2023-06-10T02:10:33;10.33;;;6.07;;
65234;SDS011;51820;48.374;10.930;2023-06-10T02:13:06;11.25;;;6.47;;
65234;SDS011;51820;48.374;10.930;2023-06-10T02:15:34;10.88;;;6.07;;
65234;SDS011;51820;48.374;10.930;2023-06-10T02:18:02;9.13;;;5.78;;
65234;SDS011;51820;48.374;10.930;2023-06-10T02:20:31;10.13;;;6.03;;
65234;SDS011;51820;48.374;10.930;2023-06-10T02:23:01;9.77;;;6.30;;
65234;SDS011;51820;48.374;10.930;2023-06-10T02:25:30;10.63;;;6.38;;
65234;SDS011;51820;48.374;10.930;2023-06-10T02:27:58;9.05;;;5.57;;
65234;SDS011;51820;48.374;10.930;2023-06-10T02:30:28;9.27;;;6.03;;
65234;SDS011;51820;48.374;10.930;2023-06-10T02:32:56;11.60;;;6.78;;
65234;SDS011;51820;48.374;10.930;2023-06-10T02:35:26;11.20;;;6.50;;
65234;SDS011;51820;48.374;10.930;2023-06-10T02:37:55;9.27;;;6.10;;
65234;SDS011;51820;48.374;10.930;2023-06-10T02:40:25;10.23;;;6.43;;
65234;SDS011;51820;48.374;10.930;2023-06-10T02:42:57;9.98;;;6.28;;
65234;SDS011;51820;48.374;10.930;2023-06-10T02:45:31;10.38;;;6.20;;
65234;SDS011;51820;48.374;10.930;2023-06-10T02:48:13;10.43;;;6.27;;
65234;SDS011;51820;48.374;10.930;2023-06-10T02:50:42;10.95;;;6.88;;
65234;SDS011;51820;48.374;10.930;2023-06-10T02:53:18;10.05;;;6.10;;
65234;SDS011;51820;48.374;10.930;2023-06-10T02:55:52;12.27;;;6.40;;
65234;SDS011;51820;48.374;10.930;2023-06-10T02:58:21;9.73;;;6.22;;
65234;SDS011;51820;48.374;10.930;2023-06-10T03:00:52;10.57;;;6.73;;
65234;SDS011;51820;48.374;10.930;2023-06-10T03:03:21;10.52;;;6.30;;
65234;SDS011;51820;48.374;10.930;2023-06-10T03:06:00;11.32;;;6.40;;
65234;SDS011;51820;48.374;10.930;2023-06-10T03:08:29;9.88;;;6.20;;
65234;SDS011;51820;48.374;10.930;2023-06-10T03:11:04;10.75;;;6.70;;
65234;SDS011;51820;48.374;10.930;2023-06-10T03:13:38;11.50;;;7.20;;
65234;SDS011;51820;48.374;10.930;2023-06-10T03:16:10;10.48;;;6.68;;
65234;SDS011;51820;48.374;10.930;2023-06-10T03:18:39;9.98;;;6.50;;
65234;SDS011;51820;48.374;10.930;2023-06-10T03:21:08;10.98;;;7.10;;
65234;SDS011;51820;48.374;10.930;2023-06-10T03:23:38;10.02;;;6.28;;
65234;SDS011;51820;48.374;10.930;2023-06-10T03:26:07;10.30;;;6.47;;
65234;SDS011;51820;48.374;10.930;2023-06-10T03:28:38;10.90;;;6.65;;
65234;SDS011;51820;48.374;10.930;2023-06-10T03:31:08;10.13;;;6.22;;
65234;SDS011;51820;48.374;10.930;2023-06-10T03:33:38;11.88;;;6.65;;
65234;SDS011;51820;48.374;10.930;2023-06-10T03:36:06;10.88;;;5.82;;
65234;SDS011;51820;48.374;10.930;2023-06-10T03:38:36;10.47;;;6.90;;
65234;SDS011;51820;48.374;10.930;2023-06-10T03:41:06;10.52;;;6.68;;
65234;SDS011;51820;48.374;10.930;2023-06-10T03:43:35;11.27;;;6.78;;
65234;SDS011;51820;48.374;10.930;2023-06-10T03:46:05;11.73;;;5.97;;
65234;SDS011;51820;48.374;10.930;2023-06-10T03:48:34;12.35;;;6.90;;
65234;SDS011;51820;48.374;10.930;2023-06-10T03:51:04;10.77;;;6.80;;
65234;SDS011;51820;48.374;10.930;2023-06-10T03:53:32;10.73;;;6.00;;
65234;SDS011;51820;48.374;10.930;2023-06-10T03:56:00;12.13;;;6.65;;
65234;SDS011;51820;48.374;10.930;2023-06-10T03:58:29;10.60;;;6.40;;
65234;SDS011;51820;48.374;10.930;2023-06-10T04:00:58;11.70;;;6.28;;
65234;SDS011;51820;48.374;10.930;2023-06-10T04:03:32;9.53;;;6.20;;
65234;SDS011;51820;48.374;10.930;2023-06-10T04:06:00;11.43;;;6.60;;
65234;SDS011;51820;48.374;10.930;2023-06-10T04:08:30;11.30;;;6.70;;
65234;SDS011;51820;48.374;10.930;2023-06-10T04:10:59;9.32;;;5.75;;
65234;SDS011;51820;48.374;10.930;2023-06-10T04:13:27;11.27;;;7.03;;
65234;SDS011;51820;48.374;10.930;2023-06-10T04:15:58;10.30;;;6.30;;
65234;SDS011;51820;48.374;10.930;2023-06-10T04:18:27;13.27;;;6.70;;
65234;SDS011;51820;48.374;10.930;2023-06-10T04:20:59;10.93;;;6.30;;
65234;SDS011;51820;48.374;10.930;2023-06-10T04:23:31;11.00;;;6.35;;
65234;SDS011;51820;48.374;10.930;2023-06-10T04:25:59;11.95;;;6.00;;
65234;SDS011;51820;48.374;10.930;2023-06-10T04:28:28;12.97;;;6.57;;
65234;SDS011;51820;48.374;10.930;2023-06-10T04:30:58;10.65;;;6.05;;
65234;SDS011;51820;48.374;10.930;2023-06-10T04:33:27;11.18;;;6.43;;
65234;SDS011;51820;48.374;10.930;2023-06-10T04:35:56;11.68;;;6.28;;
65234;SDS011;51820;48.374;10.930;2023-06-10T04:38:28;9.32;;;5.82;;
65234;SDS011;51820;48.374;10.930;2023-06-10T04:40:59;9.83;;;6.03;;
65234;SDS011;51820;48.374;10.930;2023-06-10T04:43:31;10.02;;;5.57;;
65234;SDS011;51820;48.374;10.930;2023-06-10T04:46:00;10.52;;;6.22;;
65234;SDS011;51820;48.374;10.930;2023-06-10T04:48:32;9.93;;;6.13;;
65234;SDS011;51820;48.374;10.930;2023-06-10T04:51:02;11.05;;;6.47;;
65234;SDS011;51820;48.374;10.930;2023-06-10T04:53:31;9.60;;;5.77;;
65234;SDS011;51820;48.374;10.930;2023-06-10T04:56:01;10.55;;;6.10;;
65234;SDS011;51820;48.374;10.930;2023-06-10T04:58:30;10.18;;;6.20;;
65234;SDS011;51820;48.374;10.930;2023-06-10T05:00:58;9.73;;;6.18;;
65234;SDS011;51820;48.374;10.930;2023-06-10T05:03:28;10.48;;;5.88;;
65234;SDS011;51820;48.374;10.930;2023-06-10T05:05:57;9.87;;;5.70;;
65234;SDS011;51820;48.374;10.930;2023-06-10T05:08:25;10.93;;;6.18;;
65234;SDS011;51820;48.374;10.930;2023-06-10T05:10:53;10.38;;;5.90;;
65234;SDS011;51820;48.374;10.930;2023-06-10T05:13:23;9.80;;;5.97;;
65234;SDS011;51820;48.374;10.930;2023-06-10T05:15:51;10.13;;;5.70;;
65234;SDS011;51820;48.374;10.930;2023-06-10T05:18:20;8.90;;;5.57;;
65234;SDS011;51820;48.374;10.930;2023-06-10T05:20:48;11.60;;;6.38;;
65234;SDS011;51820;48.374;10.930;2023-06-10T05:23:17;9.85;;;5.55;;
65234;SDS011;51820;48.374;10.930;2023-06-10T05:25:45;10.13;;;5.82;;
65234;SDS011;51820;48.374;10.930;2023-06-10T05:28:14;9.60;;;6.25;;
65234;SDS011;51820;48.374;10.930;2023-06-10T05:30:44;9.80;;;5.80;;
65234;SDS011;51820;48.374;10.930;2023-06-10T05:33:12;9.75;;;5.78;;
65234;SDS011;51820;48.374;10.930;2023-06-10T05:35:41;10.60;;;5.63;;
65234;SDS011;51820;48.374;10.930;2023-06-10T05:38:09;10.30;;;5.95;;
65234;SDS011;51820;48.374;10.930;2023-06-10T05:40:37;10.45;;;5.85;;
65234;SDS011;51820;48.374;10.930;2023-06-10T05:43:06;10.87;;;6.07;;
65234;SDS011;51820;48.374;10.930;2023-06-10T05:45:35;10.45;;;5.93;;
65234;SDS011;51820;48.374;10.930;2023-06-10T05:48:05;11.88;;;6.20;;
65234;SDS011;51820;48.374;10.930;2023-06-10T05:50:33;10.32;;;5.88;;
65234;SDS011;51820;48.374;10.930;2023-06-10T05:53:05;9.45;;;5.82;;
65234;SDS011;51820;48.374;10.930;2023-06-10T05:55:41;9.70;;;6.20;;
65234;SDS011;51820;48.374;10.930;2023-06-10T05:58:09;11.43;;;6.25;;
65234;SDS011;51820;48.374;10.930;2023-06-10T06:00:39;10.07;;;6.22;;
65234;SDS011;51820;48.374;10.930;2023-06-10T06:03:08;11.27;;;6.15;;
65234;SDS011;51820;48.374;10.930;2023-06-10T06:05:37;12.65;;;6.43;;
65234;SDS011;51820;48.374;10.930;2023-06-10T06:08:06;10.10;;;6.60;;
65234;SDS011;51820;48.374;10.930;2023-06-10T06:10:34;10.02;;;5.75;;
65234;SDS011;51820;48.374;10.930;2023-06-10T06:13:03;10.32;;;6.43;;
65234;SDS011;51820;48.374;10.930;2023-06-10T06:15:31;14.43;;;7.35;;
65234;SDS011;51820;48.374;10.930;2023-06-10T06:17:59;12.75;;;7.18;;
65234;SDS011;51820;48.374;10.930;2023-06-10T06:20:29;12.57;;;6.40;;
65234;SDS011;51820;48.374;10.930;2023-06-10T06:22:57;10.75;;;6.38;;
65234;SDS011;51820;48.374;10.930;2023-06-10T06:25:26;12.30;;;7.00;;
65234;SDS011;51820;48.374;10.930;2023-06-10T06:27:54;12.50;;;6.50;;
65234;SDS011;51820;48.374;10.930;2023-06-10T06:30:22;11.70;;;7.50;;
65234;SDS011;51820;48.374;10.930;2023-06-10T06:32:52;11.90;;;6.63;;
65234;SDS011;51820;48.374;10.930;2023-06-10T06:35:21;12.40;;;7.10;;
65234;SDS011;51820;48.374;10.930;2023-06-10T06:37:51;10.35;;;6.03;;
65234;SDS011;51820;48.374;10.930;2023-06-10T06:40:24;12.57;;;6.57;;
65234;SDS011;51820;48.374;10.930;2023-06-10T06:42:53;24.13;;;7.13;;
65234;SDS011;51820;48.374;10.930;2023-06-10T06:45:41;12.50;;;6.77;;
65234;SDS011;51820;48.374;10.930;2023-06-10T06:48:10;10.57;;;6.93;;
65234;SDS011;51820;48.374;10.930;2023-06-10T06:50:39;10.65;;;6.30;;
65234;SDS011;51820;48.374;10.930;2023-06-10T06:53:09;12.20;;;7.38;;
65234;SDS011;51820;48.374;10.930;2023-06-10T06:55:38;11.90;;;6.68;;
65234;SDS011;51820;48.374;10.930;2023-06-10T06:58:07;13.27;;;7.30;;
65234;SDS011;51820;48.374;10.930;2023-06-10T07:00:35;10.75;;;6.60;;
65234;SDS011;51820;48.374;10.930;2023-06-10T07:03:04;11.93;;;6.57;;
65234;SDS011;51820;48.374;10.930;2023-06-10T07:05:32;9.45;;;5.80;;
65234;SDS011;51820;48.374;10.930;2023-06-10T07:08:01;11.93;;;6.53;;
65234;SDS011;51820;48.374;10.930;2023-06-10T07:10:31;10.10;;;6.20;;
65234;SDS011;51820;48.374;10.930;2023-06-10T07:13:00;9.95;;;6.30;;
65234;SDS011;51820;48.374;10.930;2023-06-10T07:15:28;11.23;;;6.30;;
65234;SDS011;51820;48.374;10.930;2023-06-10T07:17:56;17.67;;;6.32;;
65234;SDS011;51820;48.374;10.930;2023-06-10T07:20:25;11.00;;;6.13;;
65234;SDS011;51820;48.374;10.930;2023-06-10T07:22:53;10.33;;;5.80;;
65234;SDS011;51820;48.374;10.930;2023-06-10T07:25:22;9.95;;;6.00;;
65234;SDS011;51820;48.374;10.930;2023-06-10T07:27:52;9.52;;;5.68;;
65234;SDS011;51820;48.374;10.930;2023-06-10T07:30:20;10.10;;;5.80;;
65234;SDS011;51820;48.374;10.930;2023-06-10T07:32:48;15.70;;;6.20;;
65234;SDS011;51820;48.374;10.930;2023-06-10T07:35:17;11.53;;;6.43;;
65234;SDS011;51820;48.374;10.930;2023-06-10T07:37:46;13.13;;;6.20;;
65234;SDS011;51820;48.374;10.930;2023-06-10T07:40:14;10.35;;;5.57;;
65234;SDS011;51820;48.374;10.930;2023-06-10T07:42:43;10.13;;;5.82;;
65234;SDS011;51820;48.374;10.930;2023-06-10T07:45:12;11.88;;;6.03;;
65234;SDS011;51820;48.374;10.930;2023-06-10T07:47:42;10.60;;;6.20;;
65234;SDS011;51820;48.374;10.930;2023-06-10T07:50:11;10.32;;;6.15;;
65234;SDS011;51820;48.374;10.930;2023-06-10T07:52:39;10.65;;;5.75;;
65234;SDS011;51820;48.374;10.930;2023-06-10T07:55:08;10.27;;;6.43;;
65234;SDS011;51820;48.374;10.930;2023-06-10T07:57:37;9.90;;;5.53;;
65234;SDS011;51820;48.374;10.930;2023-06-10T08:00:06;9.47;;;5.80;;
65234;SDS011;51820;48.374;10.930;2023-06-10T08:02:39;9.77;;;5.63;;
65234;SDS011;51820;48.374;10.930;2023-06-10T08:05:08;9.90;;;5.47;;
65234;SDS011;51820;48.374;10.930;2023-06-10T08:07:37;8.68;;;5.05;;
65234;SDS011;51820;48.374;10.930;2023-06-10T08:10:05;8.75;;;5.40;;
65234;SDS011;51820;48.374;10.930;2023-06-10T08:12:34;9.67;;;5.43;;
65234;SDS011;51820;48.374;10.930;2023-06-10T08:15:03;11.20;;;5.80;;
65234;SDS011;51820;48.374;10.930;2023-06-10T08:17:32;9.38;;;5.38;;
65234;SDS011;51820;48.374;10.930;2023-06-10T08:20:02;9.10;;;5.22;;
65234;SDS011;51820;48.374;10.930;2023-06-10T08:22:31;7.85;;;4.80;;
65234;SDS011;51820;48.374;10.930;2023-06-10T08:25:00;8.30;;;4.80;;
65234;SDS011;51820;48.374;10.930;2023-06-10T08:27:28;7.97;;;4.90;;
65234;SDS011;51820;48.374;10.930;2023-06-10T08:29:57;9.25;;;4.93;;
65234;SDS011;51820;48.374;10.930;2023-06-10T08:32:27;8.88;;;5.18;;
65234;SDS011;51820;48.374;10.930;2023-06-10T08:34:55;10.75;;;5.47;;
65234;SDS011;51820;48.374;10.930;2023-06-10T08:37:25;8.73;;;4.80;;
65234;SDS011;51820;48.374;10.930;2023-06-10T08:39:53;9.20;;;4.50;;
65234;SDS011;51820;48.374;10.930;2023-06-10T08:42:22;8.35;;;4.90;;
65234;SDS011;51820;48.374;10.930;2023-06-10T08:44:53;9.20;;;4.90;;
65234;SDS011;51820;48.374;10.930;2023-06-10T08:47:22;8.07;;;4.63;;
65234;SDS011;51820;48.374;10.930;2023-06-10T08:49:51;8.43;;;4.70;;
65234;SDS011;51820;48.374;10.930;2023-06-10T08:52:22;7.93;;;4.85;;
65234;SDS011;51820;48.374;10.930;2023-06-10T08:54:54;10.45;;;4.38;;
65234;SDS011;51820;48.374;10.930;2023-06-10T08:57:26;7.35;;;4.35;;
65234;SDS011;51820;48.374;10.930;2023-06-10T08:59:55;6.88;;;4.35;;
65234;SDS011;51820;48.374;10.930;2023-06-10T09:02:24;7.60;;;4.43;;
65234;SDS011;51820;48.374;10.930;2023-06-10T09:04:53;7.28;;;4.38;;
65234;SDS011;51820;48.374;10.930;2023-06-10T09:07:21;10.45;;;4.60;;
65234;SDS011;51820;48.374;10.930;2023-06-10T09:09:50;7.85;;;4.35;;
65234;SDS011;51820;48.374;10.930;2023-06-10T09:12:21;7.28;;;4.60;;
65234;SDS011;51820;48.374;10.930;2023-06-10T09:14:49;8.47;;;4.37;;
65234;SDS011;51820;48.374;10.930;2023-06-10T09:17:17;7.65;;;4.03;;
65234;SDS011;51820;48.374;10.930;2023-06-10T09:19:46;6.68;;;3.83;;
65234;SDS011;51820;48.374;10.930;2023-06-10T09:22:15;7.18;;;4.20;;
65234;SDS011;51820;48.374;10.930;2023-06-10T09:24:43;8.57;;;4.22;;
65234;SDS011;51820;48.374;10.930;2023-06-10T09:27:13;8.37;;;4.07;;
65234;SDS011;51820;48.374;10.930;2023-06-10T09:29:48;7.35;;;4.10;;
65234;SDS011;51820;48.374;10.930;2023-06-10T09:32:20;8.35;;;4.20;;
65234;SDS011;51820;48.374;10.930;2023-06-10T09:34:48;6.75;;;4.22;;
65234;SDS011;51820;48.374;10.930;2023-06-10T09:37:19;7.32;;;4.10;;
65234;SDS011;51820;48.374;10.930;2023-06-10T09:42:34;6.70;;;4.15;;
65234;SDS011;51820;48.374;10.930;2023-06-10T09:45:03;7.75;;;4.32;;
65234;SDS011;51820;48.374;10.930;2023-06-10T09:47:33;7.22;;;4.15;;
65234;SDS011;51820;48.374;10.930;2023-06-10T09:50:02;8.20;;;4.25;;
65234;SDS011;51820;48.374;10.930;2023-06-10T09:52:33;8.43;;;4.60;;
65234;SDS011;51820;48.374;10.930;2023-06-10T09:55:07;8.32;;;4.20;;
65234;SDS011;51820;48.374;10.930;2023-06-10T09:57:37;7.88;;;4.18;;
65234;SDS011;51820;48.374;10.930;2023-06-10T10:00:09;7.50;;;4.18;;
65234;SDS011;51820;48.374;10.930;2023-06-10T10:02:43;10.07;;;4.78;;
65234;SDS011;51820;48.374;10.930;2023-06-10T10:05:13;7.57;;;3.60;;
65234;SDS011;51820;48.374;10.930;2023-06-10T10:07:44;9.50;;;4.63;;
65234;SDS011;51820;48.374;10.930;2023-06-10T10:10:13;7.75;;;4.07;;
65234;SDS011;51820;48.374;10.930;2023-06-10T10:12:45;6.57;;;4.10;;
65234;SDS011;51820;48.374;10.930;2023-06-10T10:15:16;6.75;;;4.18;;
65234;SDS011;51820;48.374;10.930;2023-06-10T10:17:46;8.17;;;4.17;;
65234;SDS011;51820;48.374;10.930;2023-06-10T10:20:20;6.85;;;4.30;;
65234;SDS011;51820;48.374;10.930;2023-06-10T10:22:52;6.90;;;4.10;;
65234;SDS011;51820;48.374;10.930;2023-06-10T10:25:22;7.88;;;3.92;;
65234;SDS011;51820;48.374;10.930;2023-06-10T10:27:56;8.95;;;4.03;;
65234;SDS011;51820;48.374;10.930;2023-06-10T10:30:26;7.03;;;4.20;;
65234;SDS011;51820;48.374;10.930;2023-06-10T10:32:58;7.22;;;4.50;;
65234;SDS011;51820;48.374;10.930;2023-06-10T10:35:35;6.82;;;4.25;;
65234;SDS011;51820;48.374;10.930;2023-06-10T10:38:04;9.15;;;4.60;;
65234;SDS011;51820;48.374;10.930;2023-06-10T10:40:33;7.70;;;4.43;;
65234;SDS011;51820;48.374;10.930;2023-06-10T10:43:03;9.10;;;5.03;;
65234;SDS011;51820;48.374;10.930;2023-06-10T10:45:33;7.82;;;4.85;;
65234;SDS011;51820;48.374;10.930;2023-06-10T10:48:04;8.80;;;4.63;;
65234;SDS011;51820;48.374;10.930;2023-06-10T10:50:37;8.38;;;4.70;;
65234;SDS011;51820;48.374;10.930;2023-06-10T10:53:07;10.43;;;4.57;;
65234;SDS011;51820;48.374;10.930;2023-06-10T10:55:35;7.40;;;4.70;;
65234;SDS011;51820;48.374;10.930;2023-06-10T10:58:05;7.63;;;4.47;;
65234;SDS011;51820;48.374;10.930;2023-06-10T11:00:35;7.43;;;4.55;;
65234;SDS011;51820;48.374;10.930;2023-06-10T11:03:05;8.45;;;4.40;;
65234;SDS011;51820;48.374;10.930;2023-06-10T11:05:38;7.22;;;4.35;;
65234;SDS011;51820;48.374;10.930;2023-06-10T11:08:08;6.73;;;3.80;;
65234;SDS011;51820;48.374;10.930;2023-06-10T11:10:37;7.90;;;3.90;;
65234;SDS011;51820;48.374;10.930;2023-06-10T11:13:08;6.57;;;3.90;;
65234;SDS011;51820;48.374;10.930;2023-06-10T11:15:40;7.07;;;3.92;;
65234;SDS011;51820;48.374;10.930;2023-06-10T11:18:13;6.80;;;3.95;;
65234;SDS011;51820;48.374;10.930;2023-06-10T11:20:43;7.93;;;4.50;;
65234;SDS011;51820;48.374;10.930;2023-06-10T11:23:24;7.07;;;4.20;;
65234;SDS011;51820;48.374;10.930;2023-06-10T11:26:13;7.97;;;4.50;;
65234;SDS011;51820;48.374;10.930;2023-06-10T11:31:31;6.47;;;4.32;;
65234;SDS011;51820;48.374;10.930;2023-06-10T11:34:01;7.70;;;4.53;;
65234;SDS011;51820;48.374;10.930;2023-06-10T11:36:31;7.03;;;4.45;;
65234;SDS011;51820;48.374;10.930;2023-06-10T11:39:00;9.45;;;5.10;;
65234;SDS011;51820;48.374;10.930;2023-06-10T11:41:30;7.28;;;4.60;;
65234;SDS011;51820;48.374;10.930;2023-06-10T11:44:01;9.25;;;4.50;;
65234;SDS011;51820;48.374;10.930;2023-06-10T11:46:32;8.20;;;4.60;;
65234;SDS011;51820;48.374;10.930;2023-06-10T11:49:00;10.15;;;5.10;;
65234;SDS011;51820;48.374;10.930;2023-06-10T11:51:31;10.88;;;4.80;;
65234;SDS011;51820;48.374;10.930;2023-06-10T11:54:00;9.95;;;5.10;;
65234;SDS011;51820;48.374;10.930;2023-06-10T11:56:30;8.77;;;4.60;;
65234;SDS011;51820;48.374;10.930;2023-06-10T11:58:59;8.83;;;5.00;;
65234;SDS011;51820;48.374;10.930;2023-06-10T12:01:32;10.02;;;5.20;;
65234;SDS011;51820;48.374;10.930;2023-06-10T12:04:02;9.40;;;5.78;;
65234;SDS011;51820;48.374;10.930;2023-06-10T12:06:38;8.05;;;5.20;;
65234;SDS011;51820;48.374;10.930;2023-06-10T12:09:07;7.53;;;4.55;;
65234;SDS011;51820;48.374;10.930;2023-06-10T12:11:52;18.93;;;5.17;;
65234;SDS011;51820;48.374;10.930;2023-06-10T12:17:19;9.00;;;4.60;;
65234;SDS011;51820;48.374;10.930;2023-06-10T12:19:48;12.45;;;5.50;;
65234;SDS011;51820;48.374;10.930;2023-06-10T12:22:17;9.90;;;5.13;;
65234;SDS011;51820;48.374;10.930;2023-06-10T12:24:57;12.90;;;5.20;;
65234;SDS011;51820;48.374;10.930;2023-06-10T12:27:27;12.45;;;5.13;;
65234;SDS011;51820;48.374;10.930;2023-06-10T12:29:56;10.38;;;4.88;;
65234;SDS011;51820;48.374;10.930;2023-06-10T12:32:38;8.10;;;4.78;;
65234;SDS011;51820;48.374;10.930;2023-06-10T12:35:08;14.52;;;5.20;;
65234;SDS011;51820;48.374;10.930;2023-06-10T12:37:38;9.60;;;5.00;;
65234;SDS011;51820;48.374;10.930;2023-06-10T12:40:09;7.72;;;4.50;;
65234;SDS011;51820;48.374;10.930;2023-06-10T12:42:38;7.88;;;4.80;;
65234;SDS011;51820;48.374;10.930;2023-06-10T12:45:08;7.30;;;4.28;;
65234;SDS011;51820;48.374;10.930;2023-06-10T12:47:40;7.60;;;4.50;;
65234;SDS011;51820;48.374;10.930;2023-06-10T12:50:09;8.10;;;5.17;;
65234;SDS011;51820;48.374;10.930;2023-06-10T12:52:39;6.90;;;4.50;;
65234;SDS011;51820;48.374;10.930;2023-06-10T12:55:08;7.38;;;4.65;;
65234;SDS011;51820;48.374;10.930;2023-06-10T12:57:47;10.95;;;5.50;;
65234;SDS011;51820;48.374;10.930;2023-06-10T13:00:16;7.95;;;4.95;;
65234;SDS011;51820;48.374;10.930;2023-06-10T13:02:47;9.67;;;4.87;;
65234;SDS011;51820;48.374;10.930;2023-06-10T13:05:17;8.25;;;4.72;;
65234;SDS011;51820;48.374;10.930;2023-06-10T13:07:47;8.68;;;5.03;;
65234;SDS011;51820;48.374;10.930;2023-06-10T13:10:16;10.25;;;4.85;;
65234;SDS011;51820;48.374;10.930;2023-06-10T13:12:46;9.60;;;5.00;;
65234;SDS011;51820;48.374;10.930;2023-06-10T13:15:16;6.53;;;4.13;;
65234;SDS011;51820;48.374;10.930;2023-06-10T13:17:45;7.10;;;4.25;;
65234;SDS011;51820;48.374;10.930;2023-06-10T13:20:17;9.68;;;4.00;;
65234;SDS011;51820;48.374;10.930;2023-06-10T13:22:47;10.05;;;4.80;;
65234;SDS011;51820;48.374;10.930;2023-06-10T13:25:15;8.32;;;3.95;;
65234;SDS011;51820;48.374;10.930;2023-06-10T13:27:43;10.00;;;5.10;;
65234;SDS011;51820;48.374;10.930;2023-06-10T13:30:12;7.60;;;3.88;;
65234;SDS011;51820;48.374;10.930;2023-06-10T13:32:41;7.10;;;3.90;;
65234;SDS011;51820;48.374;10.930;2023-06-10T13:35:09;8.60;;;3.90;;
65234;SDS011;51820;48.374;10.930;2023-06-10T13:37:40;8.70;;;4.32;;
65234;SDS011;51820;48.374;10.930;2023-06-10T13:40:08;8.03;;;3.70;;
65234;SDS011;51820;48.374;10.930;2023-06-10T13:42:37;7.38;;;3.38;;
65234;SDS011;51820;48.374;10.930;2023-06-10T13:45:06;10.57;;;4.60;;
65234;SDS011;51820;48.374;10.930;2023-06-10T13:47:36;8.20;;;4.45;;
65234;SDS011;51820;48.374;10.930;2023-06-10T13:50:05;6.53;;;3.50;;
65234;SDS011;51820;48.374;10.930;2023-06-10T13:52:34;6.40;;;3.87;;
65234;SDS011;51820;48.374;10.930;2023-06-10T13:55:05;6.78;;;3.50;;
65234;SDS011;51820;48.374;10.930;2023-06-10T13:57:34;8.65;;;3.70;;
65234;SDS011;51820;48.374;10.930;2023-06-10T14:00:02;11.63;;;3.53;;
65234;SDS011;51820;48.374;10.930;2023-06-10T14:02:32;6.47;;;3.40;;
65234;SDS011;51820;48.374;10.930;2023-06-10T14:05:00;7.30;;;3.53;;
65234;SDS011;51820;48.374;10.930;2023-06-10T14:07:29;13.38;;;4.75;;
65234;SDS011;51820;48.374;10.930;2023-06-10T14:09:57;10.02;;;4.20;;
65234;SDS011;51820;48.374;10.930;2023-06-10T14:12:27;7.53;;;4.05;;
65234;SDS011;51820;48.374;10.930;2023-06-10T14:14:56;8.70;;;3.90;;
65234;SDS011;51820;48.374;10.930;2023-06-10T14:17:24;9.33;;;4.27;;
65234;SDS011;51820;48.374;10.930;2023-06-10T14:19:52;12.32;;;4.70;;
65234;SDS011;51820;48.374;10.930;2023-06-10T14:22:20;10.48;;;3.83;;
65234;SDS011;51820;48.374;10.930;2023-06-10T14:24:49;8.15;;;3.70;;
65234;SDS011;51820;48.374;10.930;2023-06-10T14:27:18;8.30;;;3.65;;
65234;SDS011;51820;48.374;10.930;2023-06-10T14:29:47;9.23;;;3.63;;
65234;SDS011;51820;48.374;10.930;2023-06-10T14:32:16;9.60;;;3.63;;
65234;SDS011;51820;48.374;10.930;2023-06-10T14:34:44;9.25;;;3.83;;
65234;SDS011;51820;48.374;10.930;2023-06-10T14:37:13;6.35;;;3.22;;
65234;SDS011;51820;48.374;10.930;2023-06-10T14:39:41;7.30;;;3.33;;
65234;SDS011;51820;48.374;10.930;2023-06-10T14:42:10;7.80;;;3.33;;
65234;SDS011;51820;48.374;10.930;2023-06-10T14:44:38;8.43;;;3.90;;
65234;SDS011;51820;48.374;10.930;2023-06-10T14:47:08;6.60;;;3.47;;
65234;SDS011;51820;48.374;10.930;2023-06-10T14:49:36;11.15;;;4.10;;
65234;SDS011;51820;48.374;10.930;2023-06-10T14:52:05;11.68;;;5.00;;